Time;durP1;ratioP1;P1;durP2;ratioP2;P2;SDS_P1;SDS_P2;PMS_P1;PMS_P2;Temp;Humidity;BMP_temperature;BMP_pressure;BME280_temperature;BME280_humidity;BME280_pressure;Samples;Min_cycle;Max_cycle;Signal;HPM_P1;HPM_P2
2021/05/01 00:01:45;;;;;;;75.57;50.43;;;7.10;99.90;;;;;;5010916;28;20549;-69
2021/05/01 00:04:12;;;;;;;73.77;46.87;;;7.10;99.90;;;;;;5010022;28;20556;-69
2021/05/01 00:06:38;;;;;;;80.97;49.87;;;7.00;99.90;;;;;;5010495;28;20975;-69
2021/05/01 00:09:05;;;;;;;73.47;49.93;;;7.00;99.90;;;;;;5010560;28;20545;-69
2021/05/01 00:11:33;;;;;;;79.03;51.47;;;7.10;99.90;;;;;;5010703;28;20549;-70
2021/05/01 00:14:00;;;;;;;67.33;46.60;;;7.20;99.90;;;;;;5010402;28;21020;-69
2021/05/01 00:16:27;;;;;;;60.47;43.47;;;7.20;99.90;;;;;;5010678;28;20862;-69
2021/05/01 00:18:54;;;;;;;64.87;45.20;;;7.30;99.90;;;;;;5010812;28;20457;-71
2021/05/01 00:21:20;;;;;;;61.70;45.63;;;7.20;99.90;;;;;;5010456;28;20987;-69
2021/05/01 00:23:46;;;;;;;65.60;47.27;;;7.30;99.90;;;;;;5010400;28;20486;-70
2021/05/01 00:26:13;;;;;;;68.40;49.20;;;7.30;99.90;;;;;;5009856;28;20826;-69
2021/05/01 00:28:40;;;;;;;62.57;45.17;;;7.40;99.90;;;;;;5010331;28;20515;-69
2021/05/01 00:31:08;;;;;;;61.70;46.00;;;7.40;99.90;;;;;;5009974;28;20454;-71
2021/05/01 00:33:34;;;;;;;61.87;43.60;;;7.40;99.90;;;;;;5010379;28;20501;-70
2021/05/01 00:36:01;;;;;;;69.37;47.10;;;7.40;99.90;;;;;;5009971;28;20536;-69
2021/05/01 00:38:27;;;;;;;69.20;47.73;;;7.30;99.90;;;;;;5010290;28;20533;-68
2021/05/01 00:40:54;;;;;;;64.47;47.30;;;7.30;99.90;;;;;;5010207;28;20541;-69
2021/05/01 00:43:20;;;;;;;65.00;45.97;;;7.40;99.90;;;;;;5010253;28;20485;-70
2021/05/01 00:45:47;;;;;;;68.27;50.00;;;7.40;99.90;;;;;;5010098;28;20595;-69
2021/05/01 00:48:14;;;;;;;68.80;47.50;;;7.40;99.90;;;;;;5014071;28;20484;-69
2021/05/01 00:50:40;;;;;;;64.07;45.93;;;7.40;99.90;;;;;;5014261;28;20537;-69
2021/05/01 00:53:06;;;;;;;66.87;47.33;;;7.40;99.90;;;;;;5014086;28;20446;-69
2021/05/01 00:55:33;;;;;;;67.53;46.60;;;7.40;99.90;;;;;;5013869;28;20472;-70
2021/05/01 00:57:59;;;;;;;65.83;47.90;;;7.40;99.90;;;;;;5014018;28;20456;-69
2021/05/01 01:00:41;;;;;;;62.27;43.20;;;7.40;99.90;;;;;;5013806;28;20450;-69
2021/05/01 01:03:08;;;;;;;66.30;49.00;;;7.40;99.90;;;;;;5013907;28;20516;-69
2021/05/01 01:05:35;;;;;;;61.50;44.27;;;7.40;99.90;;;;;;5013893;28;20460;-69
2021/05/01 01:08:01;;;;;;;62.10;44.87;;;7.30;99.90;;;;;;5013798;28;20449;-69
2021/05/01 01:10:28;;;;;;;66.40;46.63;;;7.30;99.90;;;;;;5014032;28;20832;-69
2021/05/01 01:12:54;;;;;;;60.97;42.90;;;7.30;99.90;;;;;;5013830;28;20507;-69
2021/05/01 01:15:24;;;;;;;69.53;47.90;;;7.30;99.90;;;;;;5013818;28;20469;-69
2021/05/01 01:17:51;;;;;;;65.07;43.50;;;7.30;99.90;;;;;;5013712;28;20524;-69
2021/05/01 01:20:17;;;;;;;61.77;45.03;;;7.30;99.90;;;;;;5013984;28;21134;-69
2021/05/01 01:22:44;;;;;;;59.10;43.63;;;7.30;99.90;;;;;;5013981;28;20485;-70
2021/05/01 01:25:11;;;;;;;64.23;44.30;;;7.30;99.90;;;;;;5013779;28;20603;-69
2021/05/01 01:27:38;;;;;;;65.20;44.20;;;7.30;99.90;;;;;;5013568;28;20872;-69
2021/05/01 01:30:06;;;;;;;65.03;44.23;;;7.30;99.90;;;;;;5013736;28;20449;-69
2021/05/01 01:32:33;;;;;;;73.00;48.47;;;7.20;99.90;;;;;;5013673;28;20453;-69
2021/05/01 01:34:59;;;;;;;74.10;48.23;;;7.20;99.90;;;;;;5013880;28;20473;-69
2021/05/01 01:37:26;;;;;;;66.50;45.30;;;7.20;99.90;;;;;;5014010;28;20457;-68
2021/05/01 01:39:53;;;;;;;74.43;51.37;;;7.20;99.90;;;;;;5013157;28;20839;-70
2021/05/01 01:42:19;;;;;;;70.40;46.30;;;7.20;99.90;;;;;;5013418;28;20492;-69
2021/05/01 01:44:46;;;;;;;74.07;48.80;;;7.30;99.90;;;;;;5012762;28;20500;-69
2021/05/01 01:47:12;;;;;;;68.87;48.90;;;7.20;99.90;;;;;;5013232;28;20511;-69
2021/05/01 01:49:39;;;;;;;73.70;49.57;;;7.10;99.90;;;;;;5012990;28;20467;-69
2021/05/01 01:52:06;;;;;;;66.77;47.47;;;7.10;99.90;;;;;;5013121;28;20442;-69
2021/05/01 01:54:33;;;;;;;74.90;48.97;;;7.00;99.90;;;;;;5012617;28;20472;-69
2021/05/01 01:57:01;;;;;;;81.73;50.83;;;6.90;99.90;;;;;;5012775;28;20549;-69
2021/05/01 01:59:28;;;;;;;85.00;52.07;;;6.80;99.90;;;;;;5012920;28;20540;-69
2021/05/01 02:01:54;;;;;;;94.57;56.80;;;6.70;99.90;;;;;;5012695;28;20463;-69
2021/05/01 02:04:20;;;;;;;97.60;55.90;;;6.60;99.90;;;;;;5012404;28;20474;-69
2021/05/01 02:06:47;;;;;;;85.00;50.83;;;6.60;99.90;;;;;;5012699;28;20476;-70
2021/05/01 02:09:13;;;;;;;85.33;51.07;;;6.60;99.90;;;;;;5012567;28;20607;-69
2021/05/01 02:11:40;;;;;;;76.13;51.17;;;6.60;99.90;;;;;;5012742;28;20460;-70
2021/05/01 02:14:08;;;;;;;69.33;50.10;;;6.70;99.90;;;;;;5012690;28;20484;-70
2021/05/01 02:16:35;;;;;;;75.57;47.97;;;6.60;99.90;;;;;;5012646;28;20455;-69
2021/05/01 02:19:02;;;;;;;82.20;51.50;;;6.60;99.90;;;;;;5012760;28;20442;-68
2021/05/01 02:21:29;;;;;;;92.93;53.57;;;6.60;99.90;;;;;;5012594;28;20544;-70
2021/05/01 02:23:55;;;;;;;87.03;53.73;;;6.50;99.90;;;;;;5012541;28;20492;-70
2021/05/01 02:26:22;;;;;;;90.57;51.40;;;6.60;99.90;;;;;;5012898;28;20466;-69
2021/05/01 02:28:48;;;;;;;84.27;50.87;;;6.60;99.90;;;;;;5006363;28;20507;-70
2021/05/01 02:31:15;;;;;;;77.23;51.50;;;6.60;99.90;;;;;;5012440;28;20536;-70
2021/05/01 02:33:42;;;;;;;82.00;51.67;;;6.60;99.90;;;;;;5012306;28;20631;-69
2021/05/01 02:36:08;;;;;;;76.63;50.90;;;6.60;99.90;;;;;;5011857;28;20583;-69
2021/05/01 02:38:34;;;;;;;90.37;53.77;;;6.70;99.90;;;;;;5011978;28;20449;-70
2021/05/01 02:41:01;;;;;;;87.83;53.43;;;6.70;99.90;;;;;;5012317;28;20449;-70
2021/05/01 02:43:27;;;;;;;81.63;51.00;;;6.60;99.90;;;;;;5011828;28;20542;-70
2021/05/01 02:45:53;;;;;;;88.20;57.00;;;6.60;99.90;;;;;;5012056;28;20552;-69
2021/05/01 02:48:21;;;;;;;85.27;54.47;;;6.60;99.90;;;;;;5011871;28;20544;-70
2021/05/01 02:50:47;;;;;;;85.70;53.17;;;6.60;99.90;;;;;;5011792;28;20453;-69
2021/05/01 02:53:13;;;;;;;86.83;53.40;;;6.50;99.90;;;;;;5011984;28;20536;-70
2021/05/01 02:55:40;;;;;;;79.60;51.00;;;6.50;99.90;;;;;;5011652;28;20464;-70
2021/05/01 02:58:06;;;;;;;92.07;53.10;;;6.40;99.90;;;;;;5012057;28;20503;-70
2021/05/01 03:00:32;;;;;;;97.00;56.30;;;6.40;99.90;;;;;;5011538;28;21105;-69
2021/05/01 03:02:59;;;;;;;93.27;54.30;;;6.30;99.90;;;;;;5011681;28;20494;-68
2021/05/01 03:05:26;;;;;;;92.77;52.60;;;6.20;99.90;;;;;;5011074;28;21020;-70
2021/05/01 03:07:52;;;;;;;86.97;52.30;;;6.10;99.90;;;;;;5011954;28;20452;-70
2021/05/01 03:10:22;;;;;;;91.23;55.57;;;6.20;99.90;;;;;;5011036;28;20924;-68
2021/05/01 03:12:48;;;;;;;89.23;52.60;;;6.20;99.90;;;;;;5011675;28;20458;-70
2021/05/01 03:15:15;;;;;;;86.23;52.10;;;6.10;99.90;;;;;;5011070;28;20560;-69
2021/05/01 03:17:42;;;;;;;84.60;52.70;;;6.00;99.90;;;;;;5011079;28;20932;-69
2021/05/01 03:20:10;;;;;;;86.47;52.57;;;6.00;99.90;;;;;;5011513;28;20507;-70
2021/05/01 03:22:37;;;;;;;88.03;51.03;;;6.00;99.90;;;;;;5011418;28;20942;-70
2021/05/01 03:25:05;;;;;;;81.17;51.73;;;5.90;99.90;;;;;;5011036;28;20465;-69
2021/05/01 03:27:31;;;;;;;103.53;50.07;;;5.90;99.90;;;;;;5011091;28;20469;-69
2021/05/01 03:29:57;;;;;;;119.20;45.37;;;5.90;99.90;;;;;;5011323;28;20842;-69
2021/05/01 03:32:24;;;;;;;122.00;48.30;;;5.80;99.90;;;;;;5010916;28;20453;-68
2021/05/01 03:34:50;;;;;;;138.23;50.40;;;5.70;99.90;;;;;;5010988;28;20469;-69
2021/05/01 03:37:17;;;;;;;125.07;51.00;;;5.60;99.90;;;;;;5011096;28;20453;-69
2021/05/01 03:39:44;;;;;;;144.67;47.20;;;5.60;99.90;;;;;;5011295;28;20449;-70
2021/05/01 03:42:11;;;;;;;110.53;47.83;;;5.50;99.90;;;;;;5016499;28;20536;-70
2021/05/01 03:44:37;;;;;;;99.93;43.97;;;5.50;99.90;;;;;;5011462;28;20480;-70
2021/05/01 03:47:04;;;;;;;158.60;50.83;;;5.40;99.90;;;;;;5011063;28;20458;-69
2021/05/01 03:49:30;;;;;;;77.97;46.47;;;5.40;99.90;;;;;;5010947;28;20445;-70
2021/05/01 03:51:56;;;;;;;70.60;46.93;;;5.40;99.90;;;;;;5010979;28;20446;-69
2021/05/01 03:54:23;;;;;;;80.33;49.60;;;5.30;99.90;;;;;;5010233;28;20466;-69
2021/05/01 03:56:50;;;;;;;87.90;49.30;;;5.30;99.90;;;;;;5010766;28;20450;-69
2021/05/01 03:59:16;;;;;;;92.70;53.93;;;5.40;99.90;;;;;;5010597;28;20533;-69
2021/05/01 04:01:42;;;;;;;92.87;52.50;;;5.50;99.90;;;;;;5010479;28;20564;-69
2021/05/01 04:04:10;;;;;;;89.00;52.37;;;5.50;99.90;;;;;;5010431;28;20555;-69
2021/05/01 04:06:37;;;;;;;93.57;52.63;;;5.50;99.90;;;;;;5010727;28;20462;-69
2021/05/01 04:09:04;;;;;;;91.03;51.50;;;5.50;99.90;;;;;;5010658;28;20461;-69
2021/05/01 04:11:30;;;;;;;91.63;53.20;;;5.50;99.90;;;;;;5010633;28;21113;-70
2021/05/01 04:13:57;;;;;;;103.23;54.87;;;5.60;99.90;;;;;;5010430;28;20470;-70
2021/05/01 04:16:24;;;;;;;94.47;51.30;;;5.60;99.90;;;;;;5011090;28;20528;-70
2021/05/01 04:18:50;;;;;;;81.60;47.93;;;5.50;99.90;;;;;;5010953;28;20450;-71
2021/05/01 04:21:17;;;;;;;88.23;53.60;;;5.60;99.90;;;;;;5009960;28;20528;-69
2021/05/01 04:23:44;;;;;;;93.70;53.20;;;5.70;99.90;;;;;;5010410;28;20493;-71
2021/05/01 04:26:11;;;;;;;89.20;51.43;;;5.70;99.90;;;;;;5010275;28;20532;-69
2021/05/01 04:28:37;;;;;;;93.70;51.80;;;5.80;99.90;;;;;;5010564;28;20536;-69
2021/05/01 04:31:05;;;;;;;100.10;50.73;;;5.80;99.90;;;;;;5010674;28;20454;-68
2021/05/01 04:33:31;;;;;;;110.30;54.77;;;5.70;99.90;;;;;;5010225;28;20504;-69
2021/05/01 04:35:57;;;;;;;231.73;65.13;;;5.70;99.90;;;;;;5010026;28;20545;-70
2021/05/01 04:38:24;;;;;;;144.93;62.23;;;5.70;99.90;;;;;;5009869;28;20460;-68
2021/05/01 04:40:51;;;;;;;344.67;74.67;;;5.80;99.90;;;;;;5010316;28;20524;-70
2021/05/01 04:43:22;;;;;;;135.40;57.80;;;5.70;99.90;;;;;;5009930;28;20485;-69
2021/05/01 04:45:48;;;;;;;169.57;69.18;;;5.80;99.90;;;;;;5008825;28;20911;-69
2021/05/01 04:48:16;;;;;;;125.33;60.80;;;6.00;99.90;;;;;;5010260;28;20226;-69
2021/05/01 04:50:42;;;;;;;165.17;62.50;;;6.00;99.90;;;;;;5010091;28;20541;-68
2021/05/01 04:53:08;;;;;;;114.30;56.23;;;6.00;99.90;;;;;;5010587;28;20456;-70
2021/05/01 04:55:35;;;;;;;100.60;55.00;;;5.90;99.90;;;;;;5009961;28;20564;-69
2021/05/01 04:58:01;;;;;;;91.23;51.50;;;6.00;99.90;;;;;;5010406;28;20570;-69
2021/05/01 05:00:27;;;;;;;75.60;46.10;;;6.10;99.90;;;;;;5010420;28;20474;-69
2021/05/01 05:02:54;;;;;;;67.47;42.47;;;6.10;99.90;;;;;;5010223;28;20496;-69
2021/05/01 05:05:21;;;;;;;72.07;42.73;;;6.00;99.90;;;;;;5009750;28;20505;-69
2021/05/01 05:07:48;;;;;;;75.43;43.60;;;6.00;99.90;;;;;;5010471;28;20449;-69
2021/05/01 05:10:15;;;;;;;87.67;42.80;;;5.90;99.90;;;;;;5009748;28;20514;-69
2021/05/01 05:12:43;;;;;;;81.80;44.53;;;5.90;99.90;;;;;;5009901;28;20546;-69
2021/05/01 05:15:10;;;;;;;148.60;50.00;;;5.90;99.90;;;;;;5009676;28;20504;-69
2021/05/01 05:17:37;;;;;;;82.57;46.63;;;5.90;99.90;;;;;;5009910;28;21014;-69
2021/05/01 05:20:04;;;;;;;84.97;46.03;;;6.00;99.90;;;;;;5009994;28;20476;-70
2021/05/01 05:22:32;;;;;;;76.47;44.67;;;6.10;99.90;;;;;;5009444;28;21083;-68
2021/05/01 05:24:59;;;;;;;73.93;42.70;;;6.20;99.90;;;;;;5009327;28;21064;-68
2021/05/01 05:27:26;;;;;;;76.30;43.87;;;6.10;99.90;;;;;;5009720;28;20553;-69
2021/05/01 05:29:52;;;;;;;76.80;44.40;;;6.10;99.90;;;;;;5010005;28;20453;-69
2021/05/01 05:32:20;;;;;;;70.03;43.60;;;6.10;99.90;;;;;;5010310;28;20465;-68
2021/05/01 05:34:47;;;;;;;64.73;42.23;;;6.10;99.90;;;;;;5012954;28;20480;-69
2021/05/01 05:37:14;;;;;;;68.00;43.40;;;6.10;99.90;;;;;;5013131;28;20448;-70
2021/05/01 05:39:42;;;;;;;77.40;44.70;;;6.20;99.90;;;;;;5013116;28;20461;-70
2021/05/01 05:42:10;;;;;;;74.37;43.40;;;6.20;99.90;;;;;;5013042;28;21015;-68
2021/05/01 05:44:38;;;;;;;67.83;41.20;;;6.30;99.90;;;;;;5013018;28;20547;-69
2021/05/01 05:47:04;;;;;;;79.70;42.33;;;6.30;99.90;;;;;;5013063;28;20485;-68
2021/05/01 05:49:30;;;;;;;84.97;42.93;;;6.30;99.90;;;;;;5013206;28;20452;-69
2021/05/01 05:51:57;;;;;;;79.43;40.23;;;6.30;99.90;;;;;;5013053;28;20869;-69
2021/05/01 05:54:23;;;;;;;84.70;38.20;;;6.30;99.90;;;;;;5012781;28;20870;-68
2021/05/01 05:56:51;;;;;;;69.13;38.13;;;6.20;99.90;;;;;;5006526;28;20899;-69
2021/05/01 05:59:17;;;;;;;71.80;40.03;;;6.30;99.90;;;;;;5006246;28;20499;-69
2021/05/01 06:01:46;;;;;;;69.53;39.77;;;6.40;99.90;;;;;;5012728;28;20456;-69
2021/05/01 06:04:16;;;;;;;76.20;44.30;;;6.50;99.90;;;;;;5005828;28;20490;-69
2021/05/01 06:06:54;;;;;;;63.10;39.33;;;6.60;99.90;;;;;;5012588;28;20458;-68
2021/05/01 06:09:21;;;;;;;70.07;45.00;;;6.70;99.90;;;;;;5012513;28;20536;-69
2021/05/01 06:11:52;;;;;;;63.03;40.90;;;6.90;99.90;;;;;;5012943;28;20533;-69
2021/05/01 06:14:19;;;;;;;58.97;41.67;;;7.00;99.90;;;;;;5013063;28;20984;-69
2021/05/01 06:16:46;;;;;;;63.13;39.10;;;7.20;99.90;;;;;;5013107;28;20488;-70
2021/05/01 06:19:13;;;;;;;61.90;40.13;;;7.30;99.90;;;;;;5012869;28;20853;-68
2021/05/01 06:21:40;;;;;;;58.13;37.63;;;7.40;99.90;;;;;;5013408;28;20445;-69
2021/05/01 06:24:08;;;;;;;51.83;35.93;;;7.50;99.90;;;;;;5012663;28;20947;-70
2021/05/01 06:26:37;;;;;;;51.10;36.73;;;7.60;99.90;;;;;;5012308;28;21043;-70
2021/05/01 06:29:05;;;;;;;52.33;37.40;;;7.70;99.90;;;;;;5012296;28;20457;-70
2021/05/01 06:31:36;;;;;;;55.57;38.40;;;7.80;99.90;;;;;;5011827;28;20461;-69
2021/05/01 06:34:04;;;;;;;54.10;38.30;;;7.90;99.90;;;;;;5012031;28;20472;-70
2021/05/01 06:36:32;;;;;;;50.60;37.30;;;8.10;99.90;;;;;;5011970;28;20464;-69
2021/05/01 06:39:00;;;;;;;53.97;38.47;;;8.00;99.90;;;;;;5012044;28;20464;-69
2021/05/01 06:41:37;;;;;;;48.73;35.93;;;8.00;99.90;;;;;;5012026;28;20465;-68
2021/05/01 06:44:08;;;;;;;49.90;35.30;;;8.00;99.90;;;;;;5010747;28;21368;-69
2021/05/01 06:46:36;;;;;;;50.67;37.80;;;8.00;99.90;;;;;;5011978;28;20458;-69
2021/05/01 06:49:06;;;;;;;47.57;35.40;;;8.20;99.90;;;;;;5011759;28;20914;-69
2021/05/01 06:51:38;;;;;;;49.43;36.27;;;8.30;99.90;;;;;;5011850;28;20446;-69
2021/05/01 06:54:07;;;;;;;48.43;35.90;;;8.40;99.90;;;;;;5011426;28;20469;-68
2021/05/01 06:56:33;;;;;;;48.07;34.90;;;8.60;99.90;;;;;;5011675;28;20446;-70
2021/05/01 06:59:02;;;;;;;45.17;34.20;;;8.70;99.90;;;;;;5011740;28;20464;-68
2021/05/01 07:01:31;;;;;;;45.00;34.60;;;8.70;99.90;;;;;;5011460;28;20520;-70
2021/05/01 07:03:58;;;;;;;50.40;35.77;;;8.60;99.90;;;;;;5011392;28;21053;-70
2021/05/01 07:06:25;;;;;;;50.03;36.97;;;8.70;99.90;;;;;;5011994;28;20512;-69
2021/05/01 07:08:51;;;;;;;43.10;33.10;;;8.90;99.90;;;;;;5011551;28;20532;-69
2021/05/01 07:11:18;;;;;;;45.70;32.90;;;9.00;99.90;;;;;;5011206;28;20971;-71
2021/05/01 07:13:48;;;;;;;52.90;38.63;;;9.00;99.90;;;;;;5011171;28;20691;-70
2021/05/01 07:16:15;;;;;;;54.27;38.83;;;9.10;99.90;;;;;;5011290;28;20462;-70
2021/05/01 07:18:42;;;;;;;49.23;37.00;;;9.10;99.90;;;;;;5011358;28;20450;-71
2021/05/01 07:21:09;;;;;;;43.30;34.13;;;9.20;99.90;;;;;;5011534;28;20466;-69
2021/05/01 07:23:35;;;;;;;49.70;36.73;;;9.20;99.90;;;;;;5011761;28;20517;-70
2021/05/01 07:26:03;;;;;;;46.20;34.77;;;9.30;99.90;;;;;;5011430;28;20454;-71
2021/05/01 07:28:35;;;;;;;43.70;34.93;;;9.30;99.90;;;;;;5011687;28;20499;-70
2021/05/01 07:31:05;;;;;;;48.30;36.10;;;9.30;99.90;;;;;;5010959;28;20496;-70
2021/05/01 07:33:33;;;;;;;48.30;36.57;;;9.40;99.90;;;;;;5010372;28;20537;-70
2021/05/01 07:36:04;;;;;;;43.30;33.50;;;9.50;99.90;;;;;;5003984;28;20488;-69
2021/05/01 07:38:31;;;;;;;44.57;34.90;;;9.50;99.90;;;;;;5000448;28;20825;-66
2021/05/01 07:41:00;;;;;;;39.50;32.20;;;9.30;99.90;;;;;;5005288;28;20445;-69
2021/05/01 07:43:29;;;;;;;40.67;33.93;;;9.20;99.90;;;;;;5010703;28;20478;-70
2021/05/01 07:45:57;;;;;;;44.00;33.97;;;9.30;99.90;;;;;;5009724;28;20450;-71
2021/05/01 07:48:26;;;;;;;38.20;31.60;;;9.40;99.90;;;;;;5010389;28;20961;-70
2021/05/01 07:50:52;;;;;;;38.67;30.17;;;9.40;99.90;;;;;;5010032;28;20457;-69
2021/05/01 07:53:20;;;;;;;34.30;29.03;;;9.30;99.90;;;;;;5010446;28;20449;-69
2021/05/01 07:55:46;;;;;;;40.47;32.13;;;9.40;99.90;;;;;;5010455;28;20533;-70
2021/05/01 07:58:13;;;;;;;36.43;31.40;;;9.50;99.90;;;;;;5011090;28;20460;-69
2021/05/01 08:00:41;;;;;;;36.50;28.53;;;9.60;99.90;;;;;;5010622;28;20572;-69
2021/05/01 08:03:07;;;;;;;42.43;31.93;;;9.40;99.90;;;;;;5010689;28;20482;-69
2021/05/01 08:05:33;;;;;;;36.27;29.53;;;9.30;99.90;;;;;;5010425;28;20489;-70
2021/05/01 08:08:00;;;;;;;35.10;29.27;;;9.50;99.90;;;;;;5003009;28;20446;-70
2021/05/01 08:10:27;;;;;;;33.47;26.73;;;9.40;99.90;;;;;;5003018;28;20445;-71
2021/05/01 08:12:54;;;;;;;32.97;28.87;;;9.50;99.90;;;;;;5010522;28;20873;-72
2021/05/01 08:15:20;;;;;;;33.83;28.43;;;9.60;99.90;;;;;;5009716;28;20501;-72
2021/05/01 08:17:46;;;;;;;34.80;29.10;;;9.60;99.90;;;;;;5009927;28;20449;-69
2021/05/01 08:20:15;;;;;;;36.67;30.30;;;9.60;99.90;;;;;;5010096;28;20528;-69
2021/05/01 08:22:42;;;;;;;37.53;30.60;;;9.50;99.90;;;;;;5010266;28;20445;-69
2021/05/01 08:25:11;;;;;;;35.90;29.60;;;9.40;99.90;;;;;;5009870;28;20489;-69
2021/05/01 08:27:40;;;;;;;33.60;29.07;;;9.60;99.90;;;;;;5009804;28;20540;-68
2021/05/01 08:30:09;;;;;;;35.73;29.37;;;9.60;99.90;;;;;;5010211;28;20519;-68
2021/05/01 08:32:36;;;;;;;29.20;26.03;;;9.80;99.90;;;;;;5010259;28;20454;-69
2021/05/01 08:35:03;;;;;;;33.07;29.40;;;9.80;99.90;;;;;;5009524;28;20618;-69
2021/05/01 08:37:29;;;;;;;35.03;27.03;;;9.90;99.90;;;;;;5009511;28;20826;-69
2021/05/01 08:39:55;;;;;;;30.17;26.37;;;9.90;99.90;;;;;;5002082;28;20536;-69
2021/05/01 08:42:22;;;;;;;30.80;27.30;;;9.80;99.90;;;;;;4999879;28;20825;-69
2021/05/01 08:44:49;;;;;;;31.80;28.03;;;9.80;99.90;;;;;;5006520;28;20639;-69
2021/05/01 08:47:16;;;;;;;31.90;26.83;;;9.80;99.90;;;;;;5004604;28;20473;-69
2021/05/01 08:49:42;;;;;;;35.20;29.20;;;9.80;99.90;;;;;;5007794;28;20451;-69
2021/05/01 08:52:09;;;;;;;33.73;28.73;;;9.80;99.90;;;;;;5005786;28;20486;-69
2021/05/01 08:54:36;;;;;;;32.87;27.30;;;9.90;99.90;;;;;;5006143;28;20462;-69
2021/05/01 08:57:16;;;;;;;32.57;27.47;;;9.90;99.90;;;;;;5004764;28;20442;-70
2021/05/01 08:59:42;;;;;;;32.27;27.20;;;9.90;99.90;;;;;;5008023;28;20454;-69
2021/05/01 09:02:12;;;;;;;32.30;26.37;;;9.90;99.90;;;;;;5010047;28;20544;-69
2021/05/01 09:04:45;;;;;;;30.17;25.07;;;9.90;99.90;;;;;;5009975;28;21064;-68
2021/05/01 09:07:13;;;;;;;31.63;27.87;;;9.80;99.90;;;;;;5009619;28;20461;-69
2021/05/01 09:09:40;;;;;;;33.53;28.57;;;9.80;99.90;;;;;;5013606;28;20456;-70
2021/05/01 09:12:07;;;;;;;32.43;26.60;;;9.70;99.90;;;;;;5013122;28;20441;-71
2021/05/01 09:14:36;;;;;;;35.60;29.13;;;9.70;99.90;;;;;;5003735;28;20894;-70
2021/05/01 09:17:04;;;;;;;36.97;28.87;;;9.80;99.90;;;;;;5011947;28;20456;-70
2021/05/01 09:19:34;;;;;;;36.07;29.80;;;9.80;99.90;;;;;;5013016;28;20453;-72
2021/05/01 09:22:03;;;;;;;38.97;31.63;;;9.90;99.90;;;;;;5012420;28;20454;-72
2021/05/01 09:24:29;;;;;;;36.67;30.43;;;10.00;99.90;;;;;;5011331;28;20493;-68
2021/05/01 09:26:56;;;;;;;35.03;30.60;;;10.10;99.90;;;;;;5011305;28;20457;-68
2021/05/01 09:29:32;;;;;;;39.97;30.60;;;10.20;99.90;;;;;;5012072;28;20545;-68
2021/05/01 09:32:03;;;;;;;36.37;31.97;;;10.40;99.90;;;;;;5011702;28;20503;-69
2021/05/01 09:34:43;;;;;;;36.43;30.03;;;10.40;99.90;;;;;;5008992;28;20482;-68
2021/05/01 09:37:10;;;;;;;36.23;29.00;;;10.40;99.90;;;;;;5009950;28;20445;-69
2021/05/01 09:39:47;;;;;;;34.63;28.80;;;10.40;99.90;;;;;;5008832;28;20458;-68
2021/05/01 09:42:15;;;;;;;31.37;27.33;;;10.60;99.90;;;;;;5004906;28;21034;-68
2021/05/01 09:44:41;;;;;;;35.77;29.90;;;10.80;99.90;;;;;;5009468;28;20489;-69
2021/05/01 09:47:13;;;;;;;35.23;30.10;;;10.90;99.90;;;;;;5007404;28;20472;-69
2021/05/01 09:49:40;;;;;;;35.30;29.60;;;11.10;99.90;;;;;;5010997;28;20862;-68
2021/05/01 09:52:10;;;;;;;29.93;26.30;;;11.30;99.90;;;;;;5002633;28;21251;-67
2021/05/01 09:54:39;;;;;;;30.80;27.37;;;11.60;99.90;;;;;;5004785;28;20536;-69
2021/05/01 09:57:08;;;;;;;32.73;28.57;;;11.70;99.90;;;;;;5009854;28;20813;-69
2021/05/01 09:59:36;;;;;;;33.30;27.80;;;11.50;99.90;;;;;;5009782;28;20449;-69
2021/05/01 10:02:03;;;;;;;33.70;29.00;;;11.50;99.90;;;;;;5007429;28;20450;-69
2021/05/01 10:04:30;;;;;;;34.60;30.30;;;11.50;99.90;;;;;;5009707;28;20493;-68
2021/05/01 10:06:59;;;;;;;33.67;29.60;;;11.60;99.90;;;;;;5009852;28;20442;-68
2021/05/01 10:09:27;;;;;;;35.07;29.20;;;11.60;99.90;;;;;;5007673;28;20454;-68
2021/05/01 10:12:02;;;;;;;34.73;28.80;;;11.60;99.90;;;;;;5008808;28;20477;-69
2021/05/01 10:14:35;;;;;;;32.80;28.17;;;11.50;99.90;;;;;;5007349;28;20572;-69
2021/05/01 10:17:04;;;;;;;36.30;28.50;;;11.30;99.90;;;;;;5009185;28;20444;-69
2021/05/01 10:19:50;;;;;;;32.80;29.10;;;11.50;99.90;;;;;;5008848;28;20446;-68
2021/05/01 10:22:36;;;;;;;30.83;27.23;;;11.60;99.90;;;;;;5004965;28;20561;-69
2021/05/01 10:25:06;;;;;;;35.23;30.30;;;11.80;99.90;;;;;;5003928;28;20454;-69
2021/05/01 10:27:42;;;;;;;31.77;27.40;;;11.70;99.90;;;;;;5010212;28;20462;-68
2021/05/01 10:30:15;;;;;;;32.63;28.53;;;11.70;99.90;;;;;;5009512;28;20525;-68
2021/05/01 10:32:45;;;;;;;35.40;29.80;;;11.60;99.90;;;;;;5009552;28;20465;-68
2021/05/01 10:35:13;;;;;;;34.47;29.23;;;11.50;99.90;;;;;;5006963;28;20980;-68
2021/05/01 10:37:48;;;;;;;32.97;28.97;;;11.60;99.90;;;;;;5009960;28;20449;-69
2021/05/01 10:40:15;;;;;;;32.50;27.57;;;11.60;99.90;;;;;;5010237;28;20468;-69
2021/05/01 10:42:42;;;;;;;32.03;28.00;;;11.80;99.90;;;;;;5009581;28;20460;-69
2021/05/01 10:45:09;;;;;;;30.10;25.53;;;11.90;99.90;;;;;;5008030;28;20520;-69
2021/05/01 10:47:36;;;;;;;30.63;27.40;;;12.10;99.90;;;;;;5009351;28;21017;-69
2021/05/01 10:50:18;;;;;;;33.20;26.17;;;12.30;99.90;;;;;;5008962;28;20492;-69
2021/05/01 10:52:46;;;;;;;31.37;27.00;;;12.50;99.90;;;;;;5008185;28;20830;-68
2021/05/01 10:55:12;;;;;;;31.30;27.10;;;12.60;99.90;;;;;;5008130;28;20462;-69
2021/05/01 10:57:39;;;;;;;33.17;26.90;;;12.80;99.90;;;;;;5009645;28;20511;-70
2021/05/01 11:00:08;;;;;;;35.97;28.53;;;12.70;99.90;;;;;;5008998;28;20452;-70
2021/05/01 11:02:37;;;;;;;31.00;27.40;;;12.70;99.90;;;;;;5008561;28;20511;-70
2021/05/01 11:05:06;;;;;;;32.07;28.50;;;12.60;99.90;;;;;;5007871;28;20501;-68
2021/05/01 11:07:42;;;;;;;31.40;27.47;;;12.70;99.90;;;;;;5009491;28;20877;-70
2021/05/01 11:10:12;;;;;;;31.73;26.73;;;12.50;99.90;;;;;;5009512;28;20457;-71
2021/05/01 11:12:40;;;;;;;31.37;27.87;;;12.30;99.90;;;;;;5009339;28;20456;-70
2021/05/01 11:15:08;;;;;;;34.20;26.40;;;12.20;99.90;;;;;;5008299;28;20476;-73
2021/05/01 11:17:37;;;;;;;33.33;27.10;;;12.10;99.90;;;;;;5008847;28;20533;-69
2021/05/01 11:20:06;;;;;;;34.83;29.60;;;12.00;99.90;;;;;;5004591;28;20466;-68
2021/05/01 11:22:35;;;;;;;42.73;29.40;;;11.90;99.90;;;;;;5004609;28;20454;-69
2021/05/01 11:25:04;;;;;;;32.43;27.70;;;12.00;99.90;;;;;;5004302;28;20535;-68
2021/05/01 11:27:32;;;;;;;34.87;25.87;;;12.10;99.90;;;;;;5010386;28;20941;-69
2021/05/01 11:29:58;;;;;;;34.50;28.13;;;12.30;99.90;;;;;;5010530;28;20450;-69
2021/05/01 11:32:26;;;;;;;32.30;28.00;;;12.50;99.90;;;;;;5010698;28;20454;-69
2021/05/01 11:35:02;;;;;;;31.37;27.97;;;12.60;99.90;;;;;;5010522;28;20473;-69
2021/05/01 11:37:36;;;;;;;32.10;28.70;;;12.50;99.90;;;;;;5010805;28;20935;-68
2021/05/01 11:40:05;;;;;;;33.97;29.37;;;12.30;99.90;;;;;;5010722;28;21346;-69
2021/05/01 11:42:33;;;;;;;34.60;30.10;;;12.10;99.90;;;;;;5005541;28;20501;-69
2021/05/01 11:44:59;;;;;;;40.10;31.10;;;11.80;99.90;;;;;;5003997;28;20497;-69
2021/05/01 11:47:28;;;;;;;36.63;29.70;;;11.80;99.90;;;;;;5010594;28;20532;-68
2021/05/01 11:49:56;;;;;;;35.20;28.23;;;11.70;99.90;;;;;;5010550;28;20542;-68
2021/05/01 11:52:47;;;;;;;34.80;27.47;;;11.60;99.90;;;;;;5010657;28;20449;-69
2021/05/01 11:55:22;;;;;;;31.93;28.53;;;11.70;99.90;;;;;;5007249;28;20469;-68
2021/05/01 11:57:53;;;;;;;31.93;28.30;;;11.60;99.90;;;;;;5010931;28;20801;-69
2021/05/01 12:00:31;;;;;;;34.37;28.87;;;11.60;99.90;;;;;;5010601;28;20499;-68
2021/05/01 12:03:01;;;;;;;31.77;28.37;;;11.70;99.90;;;;;;5010556;28;20477;-69
2021/05/01 12:05:33;;;;;;;34.90;29.57;;;11.70;99.90;;;;;;5003768;28;20470;-70
2021/05/01 12:08:05;;;;;;;31.43;28.03;;;11.80;99.90;;;;;;5004987;28;20457;-70
2021/05/01 12:10:36;;;;;;;32.63;27.53;;;11.90;99.90;;;;;;5010769;28;20533;-69
2021/05/01 12:13:07;;;;;;;36.00;31.20;;;12.00;99.90;;;;;;5010727;28;20552;-68
2021/05/01 12:15:36;;;;;;;30.20;26.73;;;12.20;99.90;;;;;;5010386;28;21190;-69
2021/05/01 12:18:03;;;;;;;31.67;28.30;;;12.50;99.90;;;;;;5009034;28;20452;-68
2021/05/01 12:20:31;;;;;;;33.80;28.53;;;12.60;99.90;;;;;;5010578;28;20901;-69
2021/05/01 12:23:05;;;;;;;36.00;26.13;;;12.50;99.90;;;;;;5010397;28;20478;-67
2021/05/01 12:25:37;;;;;;;31.40;27.20;;;12.60;99.90;;;;;;5008727;28;20470;-67
2021/05/01 12:28:08;;;;;;;32.53;27.97;;;12.50;99.90;;;;;;5010339;28;20524;-67
2021/05/01 12:30:50;;;;;;;28.97;24.93;;;12.50;99.90;;;;;;5009328;28;20453;-69
2021/05/01 12:33:38;;;;;;;30.03;25.40;;;12.30;99.90;;;;;;5010976;28;20448;-71
2021/05/01 12:36:06;;;;;;;30.53;27.23;;;12.40;99.90;;;;;;4992052;28;20458;-70
2021/05/01 12:38:33;;;;;;;29.77;26.67;;;12.50;99.90;;;;;;5006670;28;20481;-68